Time;durP1;ratioP1;P1;durP2;ratioP2;P2;SDS_P1;SDS_P2;PMS_P1;PMS_P2;Temp;Humidity;BMP_temperature;BMP_pressure;BME280_temperature;BME280_humidity;BME280_pressure;Samples;Min_cycle;Max_cycle;Signal;HPM_P1;HPM_P2
2023/01/23 00:02:21;;;;;;;21.98;9.15;;;;;;;-0.04;71.00;101778.22;5079793;28;20557;-62
2023/01/23 00:04:50;;;;;;;23.45;9.20;;;;;;;0.07;71.20;101797.44;5068605;28;20131;-62
2023/01/23 00:07:16;;;;;;;18.85;9.48;;;;;;;0.05;71.58;101790.53;5077316;28;20090;-61
2023/01/23 00:09:42;;;;;;;23.95;10.02;;;;;;;0.07;71.45;101796.56;5069567;28;20647;-61
2023/01/23 00:12:08;;;;;;;24.48;9.68;;;;;;;0.04;71.36;101787.13;5085731;28;20040;-62
2023/01/23 00:14:33;;;;;;;20.65;8.68;;;;;;;-0.03;71.24;101782.53;5081821;28;20488;-63
2023/01/23 00:16:59;;;;;;;21.42;9.20;;;;;;;-0.03;71.53;101782.53;5085768;28;20064;-62
2023/01/23 00:19:25;;;;;;;20.73;9.63;;;;;;;-0.03;71.27;101785.09;5082633;28;20138;-61
2023/01/23 00:21:51;;;;;;;22.35;9.95;;;;;;;-0.20;71.52;101755.38;5080747;28;20127;-62
2023/01/23 00:24:17;;;;;;;21.23;9.82;;;;;;;-0.05;71.42;101782.47;5089119;28;20122;-61
2023/01/23 00:26:43;;;;;;;22.45;9.95;;;;;;;0.02;71.45;101790.41;5078145;28;20039;-62
2023/01/23 00:29:09;;;;;;;21.73;9.85;;;;;;;0.03;71.74;101787.91;5073546;28;20049;-62
2023/01/23 00:31:38;;;;;;;23.98;10.88;;;;;;;0.00;71.43;101786.09;5086710;28;20092;-61
2023/01/23 00:34:07;;;;;;;21.92;9.32;;;;;;;-0.02;71.37;101786.84;5080750;28;20123;-61
2023/01/23 00:36:37;;;;;;;21.30;9.15;;;;;;;-0.04;71.58;101789.34;5055520;28;20058;-61
2023/01/23 00:39:05;;;;;;;23.65;9.77;;;;;;;-0.24;71.47;101758.63;5072240;28;20063;-62
2023/01/23 00:41:32;;;;;;;20.23;9.55;;;;;;;-0.07;71.93;101791.78;5081356;28;20043;-61
2023/01/23 00:43:58;;;;;;;23.15;10.20;;;;;;;-0.09;72.00;101801.06;5079522;28;20486;-62
2023/01/23 00:46:24;;;;;;;24.63;9.98;;;;;;;-0.13;72.08;101798.31;5087094;28;20057;-58
2023/01/23 00:48:50;;;;;;;30.13;10.98;;;;;;;-0.15;71.82;101808.47;5068015;28;20238;-61
2023/01/23 00:51:18;;;;;;;27.45;10.25;;;;;;;-0.16;71.99;101811.81;5088144;28;20089;-62
2023/01/23 00:53:43;;;;;;;27.85;10.73;;;;;;;-0.17;72.18;101811.78;5078831;28;20040;-62
2023/01/23 00:56:10;;;;;;;26.08;11.63;;;;;;;-0.20;72.57;101811.63;5089455;28;20047;-61
2023/01/23 00:58:36;;;;;;;27.65;11.25;;;;;;;-0.22;72.33;101814.13;5074024;28;20043;-65
2023/01/23 01:01:02;;;;;;;30.40;11.82;;;;;;;-0.38;72.48;101786.16;5064536;28;20040;-61
2023/01/23 01:03:28;;;;;;;26.80;11.13;;;;;;;-0.26;72.55;101819.91;5058243;28;20416;-61
2023/01/23 01:05:53;;;;;;;22.77;10.30;;;;;;;-0.25;72.86;101815.66;5065011;28;20433;-62
2023/01/23 01:08:19;;;;;;;25.23;10.73;;;;;;;-0.37;72.61;101787.03;5071756;28;20040;-61
2023/01/23 01:10:45;;;;;;;27.55;11.02;;;;;;;-0.39;72.56;101784.41;5077786;28;20067;-61
2023/01/23 01:13:11;;;;;;;25.02;11.13;;;;;;;-0.40;72.47;101779.22;5087807;28;20039;-61
2023/01/23 01:15:37;;;;;;;25.63;10.50;;;;;;;-0.15;72.84;101818.69;5072007;28;20071;-60
2023/01/23 01:18:04;;;;;;;29.92;12.55;;;;;;;-0.31;72.57;101785.59;5065864;28;20075;-63
2023/01/23 01:20:30;;;;;;;33.40;12.93;;;;;;;-0.11;72.72;101820.59;5050931;28;20040;-62
2023/01/23 01:22:57;;;;;;;32.60;12.88;;;;;;;-0.12;72.53;101820.50;5075537;28;20050;-62
2023/01/23 01:25:24;;;;;;;32.33;11.63;;;;;;;-0.17;72.72;101817.75;5086981;28;20047;-61
2023/01/23 01:27:50;;;;;;;33.13;12.25;;;;;;;-0.16;72.92;101823.75;5088344;28;20092;-61
2023/01/23 01:30:17;;;;;;;30.05;12.18;;;;;;;-0.16;72.92;101822.03;5088049;28;20127;-60
2023/01/23 01:32:43;;;;;;;28.52;11.73;;;;;;;-0.15;72.90;101817.81;5067132;28;20169;-62
2023/01/23 01:35:10;;;;;;;26.83;11.63;;;;;;;-0.35;73.11;101787.97;5067798;28;20040;-61
2023/01/23 01:37:37;;;;;;;25.95;10.85;;;;;;;-0.38;73.30;101793.81;5071006;28;20052;-60
2023/01/23 01:40:05;;;;;;;28.10;11.43;;;;;;;-0.20;73.01;101819.28;5071818;28;20048;-61
2023/01/23 01:42:38;;;;;;;29.45;12.52;;;;;;;-0.19;73.46;101824.47;5071090;28;20036;-62
2023/01/23 01:45:05;;;;;;;29.70;11.73;;;;;;;-0.20;73.43;101825.28;5088005;28;20039;-60
2023/01/23 01:47:31;;;;;;;31.60;12.13;;;;;;;-0.25;73.09;101826.75;5086659;28;20680;-60
2023/01/23 01:50:01;;;;;;;26.38;12.15;;;;;;;-0.28;73.58;101830.88;5089323;28;20158;-60
2023/01/23 01:52:28;;;;;;;24.02;11.15;;;;;;;-0.25;73.54;101828.44;5088497;28;20374;-62
2023/01/23 01:55:03;;;;;;;26.73;11.98;;;;;;;-0.23;73.41;101826.84;5075806;28;20134;-61
2023/01/23 01:57:38;;;;;;;25.67;11.35;;;;;;;-0.42;73.51;101794.50;5069397;28;20495;-62
2023/01/23 02:00:07;;;;;;;24.08;11.15;;;;;;;-0.27;73.07;101818.19;5086743;28;20043;-61
2023/01/23 02:02:44;;;;;;;26.30;11.32;;;;;;;-0.27;73.24;101814.75;5066365;28;20041;-62
2023/01/23 02:05:13;;;;;;;26.70;11.30;;;;;;;-0.25;73.31;101819.09;5083487;28;20042;-61
2023/01/23 02:07:56;;;;;;;27.45;10.82;;;;;;;-0.22;73.74;101811.56;5086801;28;20423;-60
2023/01/23 02:10:22;;;;;;;23.70;10.05;;;;;;;-0.39;73.18;101786.97;5039688;28;20042;-62
2023/01/23 02:12:50;;;;;;;24.17;9.95;;;;;;;-0.25;73.28;101821.66;5066936;28;20035;-61
2023/01/23 02:15:17;;;;;;;22.70;9.88;;;;;;;-0.22;73.64;101821.81;5071494;28;20491;-61
2023/01/23 02:17:43;;;;;;;23.85;10.93;;;;;;;-0.37;73.28;101795.59;5087161;28;20519;-61
2023/01/23 02:20:29;;;;;;;23.35;9.98;;;;;;;-0.21;73.42;101825.22;5038339;28;20572;-60
2023/01/23 02:23:11;;;;;;;20.58;10.02;;;;;;;-0.22;73.20;101820.94;5070127;28;20040;-62
2023/01/23 02:25:43;;;;;;;24.33;10.82;;;;;;;-0.20;73.53;101816.72;5090454;28;20048;-62
2023/01/23 02:28:13;;;;;;;20.55;9.25;;;;;;;-0.20;73.46;101816.72;5081244;28;20044;-62
2023/01/23 02:30:41;;;;;;;23.93;10.50;;;;;;;-0.25;73.44;101813.09;5051967;28;20028;-63
2023/01/23 02:33:37;;;;;;;26.73;10.52;;;;;;;-0.44;73.11;101788.44;5055231;28;20041;-61
2023/01/23 02:36:07;;;;;;;18.48;8.48;;;;;;;-0.38;73.13;101816.81;5075160;28;20664;-61
2023/01/23 02:38:37;;;;;;;20.52;8.93;;;;;;;-0.54;73.21;101820.38;5073765;28;20056;-60
2023/01/23 02:41:06;;;;;;;19.25;8.80;;;;;;;-0.52;73.37;101821.31;5070454;28;20439;-61
2023/01/23 02:43:37;;;;;;;18.20;8.30;;;;;;;-0.63;73.62;101789.28;5057505;28;20032;-61
2023/01/23 02:46:08;;;;;;;19.08;9.30;;;;;;;-0.45;73.42;101817.34;5053442;28;20053;-60
2023/01/23 02:48:35;;;;;;;18.02;8.88;;;;;;;-0.68;73.29;101787.38;5076299;28;20040;-63
2023/01/23 02:51:02;;;;;;;22.50;8.98;;;;;;;-0.43;73.44;101811.53;5057727;28;20059;-61
2023/01/23 02:53:30;;;;;;;15.32;8.05;;;;;;;-0.51;73.39;101784.75;5085521;28;20050;-62
2023/01/23 02:55:57;;;;;;;16.67;8.02;;;;;;;-0.30;73.25;101807.78;5084592;28;20040;-60
2023/01/23 03:01:09;;;;;;;19.92;8.35;;;;;;;-0.35;73.02;101809.28;5091403;28;20040;-60
2023/01/23 03:03:41;;;;;;;19.83;8.30;;;;;;;-0.33;73.08;101811.91;5082810;28;20044;-61
2023/01/23 03:06:07;;;;;;;21.23;8.77;;;;;;;-0.30;73.07;101818.03;5077887;28;20085;-59
2023/01/23 03:08:35;;;;;;;19.65;8.60;;;;;;;-0.31;72.91;101816.25;5076961;28;20039;-61
2023/01/23 03:11:02;;;;;;;18.15;8.48;;;;;;;-0.27;72.45;101823.28;5095339;28;20056;-61
2023/01/23 03:13:29;;;;;;;21.40;8.88;;;;;;;-0.44;72.75;101786.75;5089126;28;20040;-62
2023/01/23 03:15:56;;;;;;;17.60;8.52;;;;;;;-0.34;72.37;101792.28;5069828;28;20140;-60
2023/01/23 03:18:29;;;;;;;18.13;8.77;;;;;;;-0.65;72.50;101756.84;5070448;28;20064;-61
2023/01/23 03:21:01;;;;;;;20.02;8.18;;;;;;;-0.38;72.29;101818.50;5071512;28;20415;-61
2023/01/23 03:23:27;;;;;;;20.17;8.15;;;;;;;-0.36;72.55;101822.84;5089123;28;20093;-61
2023/01/23 03:25:57;;;;;;;17.83;8.20;;;;;;;-0.28;72.48;101826.63;5090742;28;20070;-61
2023/01/23 03:31:13;;;;;;;17.50;7.78;;;;;;;-0.22;71.87;101818.38;5087310;28;20048;-61
2023/01/23 03:33:42;;;;;;;20.67;8.70;;;;;;;-0.30;71.71;101800.13;5054095;28;20044;-61
2023/01/23 03:36:10;;;;;;;18.10;10.35;;;;;;;-0.20;71.91;101816.72;5087060;28;20048;-64
2023/01/23 03:38:36;;;;;;;17.02;8.45;;;;;;;-0.17;71.55;101819.44;5090045;28;20435;-61
2023/01/23 03:43:50;;;;;;;19.55;9.10;;;;;;;-0.39;72.04;101827.84;5070310;28;20464;-61
2023/01/23 03:46:16;;;;;;;20.85;9.25;;;;;;;-0.48;72.19;101825.78;5069984;28;20079;-62
2023/01/23 03:48:42;;;;;;;23.35;9.77;;;;;;;-0.57;72.24;101824.47;5069933;28;20063;-63
2023/01/23 03:51:08;;;;;;;21.27;9.48;;;;;;;-0.67;72.67;101823.19;5051028;28;20060;-62
2023/01/23 03:53:34;;;;;;;21.75;9.88;;;;;;;-0.69;72.98;101832.47;5069845;28;20099;-62
2023/01/23 03:56:00;;;;;;;24.70;10.55;;;;;;;-0.82;72.76;101809.72;5088395;28;20064;-61
2023/01/23 03:58:29;;;;;;;25.55;10.13;;;;;;;-0.75;73.21;101832.19;5063909;28;20093;-62
2023/01/23 04:00:56;;;;;;;21.35;8.00;;;;;;;-0.76;72.99;101835.53;5078174;28;20059;-62
2023/01/23 04:03:22;;;;;;;16.58;7.93;;;;;;;-0.88;73.59;101832.41;5056566;28;20040;-61
2023/01/23 04:05:48;;;;;;;20.55;8.57;;;;;;;-0.96;73.90;101838.88;5069470;28;20037;-61
2023/01/23 04:08:16;;;;;;;17.50;8.52;;;;;;;-1.04;74.23;101842.72;5077888;28;20404;-61
2023/01/23 04:10:42;;;;;;;24.75;9.15;;;;;;;-0.99;73.95;101838.69;5053239;28;20037;-61
2023/01/23 04:13:13;;;;;;;13.48;7.15;;;;;;;-0.99;74.15;101841.25;5069210;28;20093;-61
2023/01/23 04:15:39;;;;;;;17.90;8.18;;;;;;;-1.04;74.07;101841.03;5068993;28;20044;-61
2023/01/23 04:18:06;;;;;;;15.50;8.10;;;;;;;-1.01;74.43;101833.53;5082399;28;20048;-60
2023/01/23 04:20:32;;;;;;;19.40;7.55;;;;;;;-0.85;74.04;101832.56;5059699;28;20036;-63
2023/01/23 04:22:58;;;;;;;20.20;8.48;;;;;;;-0.84;74.03;101838.56;5076097;28;20529;-59
2023/01/23 04:25:27;;;;;;;18.70;9.02;;;;;;;-0.94;74.43;101835.56;5070971;28;20040;-60
2023/01/23 04:27:53;;;;;;;19.13;9.07;;;;;;;-0.91;74.29;101837.41;5084824;28;20515;-62
2023/01/23 04:30:19;;;;;;;17.67;8.27;;;;;;;-0.82;74.41;101844.59;5085048;28;20048;-60
2023/01/23 04:32:45;;;;;;;19.52;8.85;;;;;;;-0.68;73.93;101846.13;5083065;28;20044;-61
2023/01/23 04:35:13;;;;;;;21.17;9.90;;;;;;;-0.65;74.08;101841.13;5067607;28;20040;-61
2023/01/23 04:37:41;;;;;;;20.40;9.70;;;;;;;-0.64;73.93;101835.22;5081663;28;20084;-62
2023/01/23 04:40:09;;;;;;;20.65;9.40;;;;;;;-0.49;74.06;101851.25;5083211;28;20468;-61
2023/01/23 04:42:44;;;;;;;24.98;10.48;;;;;;;-0.54;73.64;101829.72;5065483;28;20044;-62
2023/01/23 04:45:24;;;;;;;25.95;10.65;;;;;;;-0.37;73.63;101854.34;5088501;28;20082;-61
2023/01/23 04:48:17;;;;;;;25.05;9.88;;;;;;;-0.62;73.74;101814.03;5084186;28;20097;-63
2023/01/23 04:50:42;;;;;;;28.75;10.00;;;;;;;-0.39;73.83;101850.84;5081554;28;20469;-61
2023/01/23 04:53:08;;;;;;;25.35;10.95;;;;;;;-0.61;73.50;101823.47;5059471;28;20080;-62
2023/01/23 04:55:34;;;;;;;22.83;10.18;;;;;;;-0.59;73.50;101836.31;5076202;28;20126;-62
2023/01/23 04:58:04;;;;;;;;;;;;;;;-0.44;73.50;101867.66;5076678;28;20061;-61
2023/01/23 05:00:30;;;;;;;27.75;10.30;;;;;;;-0.73;73.68;101822.91;5073694;28;19929;-62
2023/01/23 05:02:58;;;;;;;25.77;11.73;;;;;;;-0.44;73.72;101868.53;5062130;28;20040;-63
2023/01/23 05:05:24;;;;;;;20.77;10.43;;;;;;;-0.39;73.68;101866.19;5084954;28;20051;-60
2023/01/23 05:07:54;;;;;;;28.25;11.18;;;;;;;-0.40;73.49;101871.22;5070312;28;20155;-62
2023/01/23 05:10:20;;;;;;;26.20;10.43;;;;;;;-0.46;73.52;101870.13;5080098;28;20174;-63
2023/01/23 05:12:47;;;;;;;22.17;9.73;;;;;;;-0.86;73.53;101820.59;5062573;28;20044;-63
2023/01/23 05:15:14;;;;;;;22.05;10.00;;;;;;;-0.73;73.94;101865.47;5068687;28;20039;-62
2023/01/23 05:17:42;;;;;;;23.05;9.35;;;;;;;-1.06;73.98;101834.13;5086771;28;20583;-62
2023/01/23 05:20:10;;;;;;;19.70;9.45;;;;;;;-1.02;73.95;101839.44;5085637;28;20516;-63
2023/01/23 05:22:38;;;;;;;25.73;10.82;;;;;;;-0.88;74.64;101874.16;5052972;28;20044;-63
2023/01/23 05:25:04;;;;;;;26.00;10.93;;;;;;;-0.83;74.35;101882.03;5082287;28;20042;-63
2023/01/23 05:27:30;;;;;;;25.02;10.82;;;;;;;-0.80;74.32;101882.19;5103609;28;20032;-61
2023/01/23 05:29:58;;;;;;;26.77;10.85;;;;;;;-0.93;74.19;101851.75;5049616;28;20039;-62
2023/01/23 05:32:26;;;;;;;23.23;10.18;;;;;;;-0.70;73.93;101888.59;5065382;28;20487;-62
2023/01/23 05:34:56;;;;;;;23.70;11.05;;;;;;;-0.81;73.91;101859.13;5051198;28;20040;-63
2023/01/23 05:37:25;;;;;;;28.45;9.93;;;;;;;-0.88;73.69;101856.28;5076613;28;20063;-63
2023/01/23 05:39:59;;;;;;;23.52;9.73;;;;;;;-0.74;73.31;101853.50;5091542;28;20035;-62
2023/01/23 05:42:31;;;;;;;27.45;11.20;;;;;;;-0.48;73.22;101897.31;5050974;28;20131;-62
2023/01/23 05:45:16;;;;;;;20.95;9.35;;;;;;;-0.65;72.91;101859.91;5069979;28;20063;-62
2023/01/23 05:47:42;;;;;;;24.17;8.68;;;;;;;-0.37;73.05;101897.81;5087400;28;20047;-63
2023/01/23 05:50:14;;;;;;;21.35;9.40;;;;;;;-0.35;72.58;101908.06;5086748;28;20039;-62
2023/01/23 05:52:41;;;;;;;20.33;7.60;;;;;;;-0.38;72.49;101903.72;5064855;28;20040;-61
2023/01/23 05:55:07;;;;;;;21.02;8.95;;;;;;;-0.58;72.38;101869.59;5071288;28;20050;-58
2023/01/23 05:57:35;;;;;;;21.35;9.68;;;;;;;-0.38;72.08;101897.72;5087637;28;20046;-59
2023/01/23 06:00:21;;;;;;;19.85;9.05;;;;;;;-0.70;72.28;101878.38;5076442;28;20044;-62
2023/01/23 06:03:07;;;;;;;21.00;9.13;;;;;;;-0.90;72.32;101854.47;5071724;28;20048;-62
2023/01/23 06:06:02;;;;;;;20.15;9.30;;;;;;;-0.70;72.42;101876.69;5040936;28;20051;-62
2023/01/23 06:08:28;;;;;;;22.33;9.90;;;;;;;-0.46;72.15;101905.03;5035072;28;20040;-62
2023/01/23 06:10:57;;;;;;;22.30;9.63;;;;;;;-0.54;71.93;101919.16;5094531;28;20101;-62
2023/01/23 06:13:24;;;;;;;19.73;8.48;;;;;;;-0.78;72.33;101895.00;5067040;28;20349;-61
2023/01/23 06:15:51;;;;;;;20.98;9.73;;;;;;;-0.58;72.32;101918.13;5034023;28;20040;-62
2023/01/23 06:18:18;;;;;;;21.38;9.35;;;;;;;-0.54;72.61;101914.03;5051868;28;20094;-62
2023/01/23 06:20:43;;;;;;;22.30;9.52;;;;;;;-0.71;72.52;101881.72;5066571;28;20041;-62
2023/01/23 06:23:09;;;;;;;20.23;9.50;;;;;;;-0.52;72.19;101915.84;5063494;28;20052;-63
2023/01/23 06:25:36;;;;;;;20.77;8.93;;;;;;;-0.59;72.42;101921.50;5064477;28;20139;-61
2023/01/23 06:28:05;;;;;;;19.67;9.17;;;;;;;-0.55;71.85;101920.81;5066994;28;20097;-63
2023/01/23 06:30:33;;;;;;;20.50;8.80;;;;;;;-0.58;71.60;101919.81;5066496;28;20040;-62
2023/01/23 06:32:59;;;;;;;25.77;10.00;;;;;;;-0.70;72.17;101919.25;5082469;28;20106;-60
2023/01/23 06:35:32;;;;;;;18.77;9.30;;;;;;;-0.65;72.26;101923.75;5086688;28;20376;-61
2023/01/23 06:37:58;;;;;;;20.92;9.80;;;;;;;-0.61;71.97;101927.31;5063031;28;20155;-62
2023/01/23 06:40:25;;;;;;;19.23;9.07;;;;;;;-0.54;72.01;101930.25;5101706;28;20056;-60
2023/01/23 06:43:05;;;;;;;20.33;9.32;;;;;;;-0.51;71.81;101927.81;5080538;28;20085;-63
2023/01/23 06:45:31;;;;;;;21.20;9.15;;;;;;;-0.57;72.20;101932.63;5080189;28;20040;-62
2023/01/23 06:47:57;;;;;;;22.50;8.60;;;;;;;-0.64;72.66;101924.63;5081937;28;20521;-64
2023/01/23 06:50:26;;;;;;;19.15;9.40;;;;;;;-0.60;72.64;101934.19;5070651;28;20082;-66
2023/01/23 06:52:51;;;;;;;20.65;9.20;;;;;;;-0.79;72.29;101890.72;5066377;28;20472;-63
2023/01/23 06:55:19;;;;;;;19.60;8.40;;;;;;;-0.61;72.34;101902.66;5059599;28;20176;-59
2023/01/23 06:57:45;;;;;;;17.75;8.50;;;;;;;-0.43;71.85;101936.72;5054981;28;20040;-60
2023/01/23 07:00:12;;;;;;;16.75;8.52;;;;;;;-0.49;71.86;101933.00;5056594;28;20036;-55
2023/01/23 07:02:38;;;;;;;22.58;9.73;;;;;;;-0.46;71.47;101928.03;5072285;28;20044;-62
2023/01/23 07:05:05;;;;;;;22.27;10.30;;;;;;;-0.53;71.41;101903.03;5075167;28;20056;-53
2023/01/23 07:07:30;;;;;;;18.98;7.97;;;;;;;-0.46;70.88;101920.34;5074486;28;20051;-55
2023/01/23 07:09:57;;;;;;;20.63;8.15;;;;;;;-0.61;71.01;101900.09;5065009;28;20086;-60
2023/01/23 07:12:24;;;;;;;15.82;7.85;;;;;;;-0.35;70.68;101923.41;5061326;28;20039;-61
2023/01/23 07:14:50;;;;;;;21.10;9.10;;;;;;;-0.34;70.94;101926.03;5048718;28;20063;-61
2023/01/23 07:17:21;;;;;;;19.42;8.90;;;;;;;-0.31;70.95;101925.28;5055378;28;20067;-62
2023/01/23 07:19:49;;;;;;;20.65;9.18;;;;;;;-0.25;70.90;101926.44;5069974;28;20051;-63
2023/01/23 07:22:18;;;;;;;18.85;9.10;;;;;;;-0.25;71.01;101925.56;5054716;28;20081;-61
2023/01/23 07:24:44;;;;;;;21.35;9.70;;;;;;;-0.67;70.99;101896.38;5078401;28;20047;-61
2023/01/23 07:27:10;;;;;;;19.58;9.40;;;;;;;-0.62;71.14;101934.09;5078448;28;20501;-62
2023/01/23 07:29:36;;;;;;;15.82;7.47;;;;;;;-0.76;71.51;101932.59;5078066;28;20082;-61
2023/01/23 07:32:01;;;;;;;16.38;7.22;;;;;;;-0.89;71.81;101926.00;5074861;28;20036;-61
2023/01/23 07:34:27;;;;;;;19.00;8.13;;;;;;;-0.98;71.89;101929.81;5083915;28;20063;-59
2023/01/23 07:36:53;;;;;;;20.00;7.80;;;;;;;-1.16;71.57;101906.84;5061410;28;20043;-61
2023/01/23 07:39:19;;;;;;;17.83;8.00;;;;;;;-0.93;71.89;101946.22;5067355;28;20177;-62
2023/01/23 07:41:45;;;;;;;15.98;8.00;;;;;;;-0.83;71.49;101930.53;5059197;28;20185;-62
2023/01/23 07:44:18;;;;;;;20.02;8.38;;;;;;;-0.83;71.38;101938.19;5076743;28;20040;-62
2023/01/23 07:46:45;;;;;;;20.35;8.45;;;;;;;-0.87;71.11;101936.31;5078164;28;20043;-62
2023/01/23 07:49:12;;;;;;;16.83;8.48;;;;;;;-0.85;70.94;101934.72;5078718;28;20048;-61
2023/01/23 07:51:38;;;;;;;21.63;8.50;;;;;;;-0.80;70.71;101940.03;5075015;28;20124;-61
2023/01/23 07:54:04;;;;;;;17.77;8.88;;;;;;;-0.92;70.51;101902.91;5063202;28;20135;-62
2023/01/23 07:56:30;;;;;;;16.17;7.70;;;;;;;-0.57;70.46;101947.09;5073949;28;20130;-60
2023/01/23 07:58:55;;;;;;;17.55;8.18;;;;;;;-0.71;70.50;101936.25;5084370;28;20496;-62
2023/01/23 08:01:21;;;;;;;19.55;8.50;;;;;;;-0.77;70.61;101940.16;5076157;28;20044;-61
2023/01/23 08:03:47;;;;;;;21.05;8.55;;;;;;;-0.81;70.66;101939.16;5076643;28;20048;-61
2023/01/23 08:06:14;;;;;;;18.98;7.95;;;;;;;-0.84;70.37;101944.13;5073834;28;20059;-61
2023/01/23 08:08:40;;;;;;;15.95;7.35;;;;;;;-1.08;70.23;101923.41;5060845;28;20143;-61
2023/01/23 08:11:09;;;;;;;16.85;8.40;;;;;;;-1.02;70.19;101933.91;5097428;28;20138;-60
2023/01/23 08:13:35;;;;;;;14.88;7.13;;;;;;;-1.05;70.22;101946.53;5075056;28;20086;-60
2023/01/23 08:16:01;;;;;;;16.75;7.53;;;;;;;-1.27;70.18;101914.78;5075990;28;20422;-60
2023/01/23 08:18:28;;;;;;;13.27;6.00;;;;;;;-1.13;70.01;101944.38;5071765;28;20155;-61
2023/01/23 08:20:55;;;;;;;15.85;7.70;;;;;;;-1.19;70.08;101942.41;5083670;28;20196;-61
2023/01/23 08:23:28;;;;;;;14.40;5.85;;;;;;;-1.21;70.56;101948.25;5068960;28;20159;-62
2023/01/23 08:25:56;;;;;;;14.20;6.30;;;;;;;-1.36;70.59;101951.78;5079278;28;20051;-61
2023/01/23 08:28:22;;;;;;;16.83;7.57;;;;;;;-1.38;71.26;101944.88;5068813;28;20040;-61
2023/01/23 08:30:49;;;;;;;18.67;7.88;;;;;;;-1.49;71.36;101923.91;5068795;28;20059;-62
2023/01/23 08:33:15;;;;;;;16.67;7.38;;;;;;;-1.47;71.13;101922.34;5064557;28;20492;-62
2023/01/23 08:35:53;;;;;;;15.15;6.95;;;;;;;-1.37;71.70;101959.38;5058557;28;20089;-61
2023/01/23 08:38:19;;;;;;;16.95;7.68;;;;;;;-1.38;71.89;101957.63;5071025;28;20074;-61
2023/01/23 08:40:46;;;;;;;18.95;7.47;;;;;;;-1.36;72.00;101953.47;5068270;28;20040;-61
2023/01/23 08:43:13;;;;;;;20.80;8.32;;;;;;;-1.21;71.93;101955.91;5070167;28;20551;-61
2023/01/23 08:45:39;;;;;;;16.95;7.38;;;;;;;-1.21;71.68;101961.03;5075449;28;20032;-60
2023/01/23 08:48:06;;;;;;;18.90;8.02;;;;;;;-1.17;71.69;101955.25;5090184;28;20131;-61
2023/01/23 08:50:33;;;;;;;17.83;8.25;;;;;;;-1.10;71.56;101955.63;5089231;28;20032;-61
2023/01/23 08:52:59;;;;;;;20.30;8.18;;;;;;;-1.32;71.45;101932.41;5072047;28;20039;-62
2023/01/23 08:55:27;;;;;;;19.23;8.90;;;;;;;-1.30;72.23;101953.75;5038512;28;20494;-61
2023/01/23 08:57:53;;;;;;;20.52;8.40;;;;;;;-1.33;72.69;101953.63;5088946;28;20055;-62
2023/01/23 09:00:19;;;;;;;25.55;10.25;;;;;;;-1.27;72.86;101953.06;5090000;28;20040;-62
2023/01/23 09:02:45;;;;;;;21.73;8.25;;;;;;;-1.25;72.43;101951.44;5071782;28;20040;-61
2023/01/23 09:05:11;;;;;;;19.75;8.90;;;;;;;-1.22;72.63;101946.50;5071959;28;20511;-60
2023/01/23 09:07:37;;;;;;;21.08;8.90;;;;;;;-1.19;72.33;101949.19;5076004;28;20064;-61
2023/01/23 09:10:04;;;;;;;18.80;9.02;;;;;;;-1.18;72.45;101945.84;5078594;28;20527;-61
2023/01/23 09:12:31;;;;;;;23.13;9.48;;;;;;;-1.23;72.62;101947.28;5073161;28;20044;-61
2023/01/23 09:14:57;;;;;;;26.63;10.05;;;;;;;-1.56;72.85;101890.38;5075983;28;20063;-62
2023/01/23 09:17:24;;;;;;;20.65;8.85;;;;;;;-1.26;72.71;101942.94;5076999;28;20044;-60
2023/01/23 09:19:50;;;;;;;22.05;9.80;;;;;;;-1.26;72.66;101940.38;5071561;28;20036;-60
2023/01/23 09:22:16;;;;;;;24.27;8.77;;;;;;;-1.25;72.82;101939.56;5080242;28;20062;-62
2023/01/23 09:24:42;;;;;;;17.50;7.63;;;;;;;-1.31;72.73;101929.91;5051249;28;20040;-62
2023/01/23 09:27:08;;;;;;;22.95;7.68;;;;;;;-1.56;72.75;101880.16;5073391;28;20058;-63
2023/01/23 09:29:35;;;;;;;20.23;7.45;;;;;;;-1.34;73.07;101924.69;5064670;28;20694;-59
2023/01/23 09:32:01;;;;;;;18.55;7.97;;;;;;;-1.30;72.85;101935.91;5079854;28;20046;-61
2023/01/23 09:34:28;;;;;;;18.95;7.70;;;;;;;-1.39;73.03;101926.13;5079819;28;20040;-62
2023/01/23 09:36:54;;;;;;;14.68;7.07;;;;;;;-1.30;73.19;101934.22;5081613;28;20044;-61
2023/01/23 09:39:20;;;;;;;15.02;6.82;;;;;;;-1.44;72.85;101937.78;5067735;28;20400;-62
2023/01/23 09:41:48;;;;;;;18.75;8.20;;;;;;;-1.49;72.99;101926.47;5077185;28;20074;-62
2023/01/23 09:44:38;;;;;;;15.13;6.45;;;;;;;-1.42;72.85;101933.63;5067883;28;20040;-60
2023/01/23 09:47:35;;;;;;;17.70;7.05;;;;;;;-1.41;72.65;101927.72;5079270;28;20031;-61
2023/01/23 09:50:10;;;;;;;16.23;7.45;;;;;;;-1.75;72.60;101892.00;5062643;28;20054;-62
2023/01/23 09:52:41;;;;;;;18.23;7.38;;;;;;;-1.48;72.93;101929.91;5060702;28;20447;-62
2023/01/23 09:55:18;;;;;;;15.98;6.45;;;;;;;-1.44;72.79;101929.25;5073903;28;20123;-63
2023/01/23 09:57:59;;;;;;;17.88;7.53;;;;;;;-1.42;72.72;101928.53;5059353;28;20468;-62
2023/01/23 10:00:30;;;;;;;15.40;7.95;;;;;;;-1.42;72.92;101933.63;5071400;28;20451;-64
2023/01/23 10:02:59;;;;;;;18.60;8.02;;;;;;;-1.31;72.86;101937.56;5091626;28;20043;-62
2023/01/23 10:05:51;;;;;;;20.33;7.60;;;;;;;-1.45;72.68;101912.19;5075015;28;20050;-61
2023/01/23 10:08:47;;;;;;;12.18;6.13;;;;;;;-1.33;72.41;101938.31;5075092;28;20059;-60
2023/01/23 10:11:23;;;;;;;17.20;7.47;;;;;;;-1.51;72.08;101928.06;5057607;28;20043;-62
2023/01/23 10:14:09;;;;;;;17.50;8.05;;;;;;;-1.48;72.55;101935.00;5057614;28;20051;-62
2023/01/23 10:16:57;;;;;;;19.15;8.05;;;;;;;-1.42;72.11;101941.28;5077281;28;20040;-61
2023/01/23 10:19:23;;;;;;;19.10;7.78;;;;;;;-1.39;72.15;101935.44;5073669;28;20037;-64
2023/01/23 10:22:02;;;;;;;22.35;7.40;;;;;;;-1.56;72.14;101908.22;5077134;28;20046;-65
2023/01/23 10:25:10;;;;;;;19.00;7.97;;;;;;;-1.34;72.23;101945.09;5059078;28;20045;-62
2023/01/23 10:27:42;;;;;;;23.40;8.73;;;;;;;-1.36;71.88;101946.69;4964062;28;20120;-61
2023/01/23 10:30:33;;;;;;;12.90;6.32;;;;;;;-1.45;71.83;101943.66;5044312;28;20535;-63
2023/01/23 10:33:18;;;;;;;16.10;7.72;;;;;;;-1.50;72.04;101936.59;5075158;28;20045;-62
2023/01/23 10:35:55;;;;;;;18.27;8.40;;;;;;;-1.50;72.06;101914.50;5054190;28;20051;-60
2023/01/23 10:38:38;;;;;;;14.95;7.80;;;;;;;-1.36;71.77;101935.63;5058138;28;20056;-62
2023/01/23 10:41:12;;;;;;;19.00;7.78;;;;;;;-1.40;71.79;101936.25;5082581;28;20062;-61
2023/01/23 10:43:39;;;;;;;18.83;8.57;;;;;;;-1.42;71.84;101935.31;5082382;28;20032;-61
2023/01/23 10:46:18;;;;;;;17.67;8.40;;;;;;;-1.51;72.16;101905.09;5083015;28;20165;-63
2023/01/23 10:48:51;;;;;;;25.95;7.88;;;;;;;-1.26;71.78;101926.75;5082593;28;20048;-62
2023/01/23 10:51:44;;;;;;;19.35;9.07;;;;;;;-1.22;71.87;101918.44;5070341;28;20419;-62
2023/01/23 10:54:19;;;;;;;21.55;9.02;;;;;;;-1.19;71.37;101922.00;5053336;28;20063;-62
2023/01/23 10:57:01;;;;;;;20.20;8.75;;;;;;;-1.36;71.20;101889.69;5067296;28;20097;-62
2023/01/23 10:59:29;;;;;;;25.45;8.82;;;;;;;-1.10;70.92;101911.38;5089628;28;20112;-60
2023/01/23 11:01:57;;;;;;;22.17;8.73;;;;;;;-1.11;70.84;101905.38;5091036;28;20150;-62
2023/01/23 11:04:25;;;;;;;22.98;9.43;;;;;;;-1.15;70.49;101903.47;5083955;28;20050;-60
2023/01/23 11:07:10;;;;;;;26.60;9.80;;;;;;;-1.08;70.32;101902.09;5054060;28;20057;-62
2023/01/23 11:09:52;;;;;;;23.48;10.10;;;;;;;-1.00;70.12;101909.34;5077807;28;20044;-60
2023/01/23 11:12:21;;;;;;;21.17;8.00;;;;;;;-0.99;69.66;101911.06;5047178;28;20085;-62
2023/01/23 11:14:47;;;;;;;23.25;9.93;;;;;;;-0.89;69.66;101913.25;5072029;28;20040;-62
2023/01/23 11:17:18;;;;;;;26.40;9.18;;;;;;;-0.87;69.01;101915.88;5078602;28;20048;-62
2023/01/23 11:19:46;;;;;;;22.08;9.57;;;;;;;-1.20;68.75;101868.34;5083179;28;20166;-62
2023/01/23 11:22:37;;;;;;;30.88;10.18;;;;;;;-0.90;68.99;101914.06;5078733;28;20048;-62
2023/01/23 11:25:27;;;;;;;30.48;10.80;;;;;;;-0.85;68.55;101909.19;5087920;28;20044;-63
2023/01/23 11:27:58;;;;;;;25.33;10.85;;;;;;;-0.75;68.61;101918.16;5075273;28;20036;-61
2023/01/23 11:30:32;;;;;;;24.45;10.38;;;;;;;-0.68;67.85;101909.97;5071036;28;20056;-62
2023/01/23 11:33:21;;;;;;;25.27;10.45;;;;;;;-0.64;68.05;101911.88;5067544;28;20044;-63
2023/01/23 11:35:59;;;;;;;25.67;8.77;;;;;;;-0.67;67.94;101922.78;5076851;28;20043;-62